sensor_id;sensor_type;location;lat;lon;timestamp;temperature;humidity
45409;DHT22;31162;51.076;3.784;2023-05-02T00:00:08;12.90;99.90
45409;DHT22;31162;51.076;3.784;2023-05-02T00:02:34;12.90;99.90
45409;DHT22;31162;51.076;3.784;2023-05-02T00:05:00;12.90;99.90
45409;DHT22;31162;51.076;3.784;2023-05-02T00:07:28;12.90;99.90
45409;DHT22;31162;51.076;3.784;2023-05-02T00:09:54;12.90;99.90
45409;DHT22;31162;51.076;3.784;2023-05-02T00:12:20;12.90;99.90
45409;DHT22;31162;51.076;3.784;2023-05-02T00:14:45;12.90;99.90
45409;DHT22;31162;51.076;3.784;2023-05-02T00:17:19;12.80;99.90
45409;DHT22;31162;51.076;3.784;2023-05-02T00:19:45;12.80;99.90
45409;DHT22;31162;51.076;3.784;2023-05-02T00:22:11;12.80;99.90
45409;DHT22;31162;51.076;3.784;2023-05-02T00:24:37;12.80;99.90
45409;DHT22;31162;51.076;3.784;2023-05-02T00:27:03;12.70;99.90
45409;DHT22;31162;51.076;3.784;2023-05-02T00:29:29;12.70;99.90
45409;DHT22;31162;51.076;3.784;2023-05-02T00:31:55;12.80;99.90
45409;DHT22;31162;51.076;3.784;2023-05-02T00:34:22;12.70;99.90
45409;DHT22;31162;51.076;3.784;2023-05-02T00:36:50;12.60;99.90
45409;DHT22;31162;51.076;3.784;2023-05-02T00:39:16;12.60;99.90
45409;DHT22;31162;51.076;3.784;2023-05-02T00:41:41;12.60;99.90
45409;DHT22;31162;51.076;3.784;2023-05-02T00:44:07;12.60;99.90
45409;DHT22;31162;51.076;3.784;2023-05-02T00:46:33;12.80;99.90
45409;DHT22;31162;51.076;3.784;2023-05-02T00:49:00;12.80;99.90
45409;DHT22;31162;51.076;3.784;2023-05-02T00:51:26;12.70;99.90
45409;DHT22;31162;51.076;3.784;2023-05-02T00:53:51;12.70;99.90
45409;DHT22;31162;51.076;3.784;2023-05-02T00:56:17;12.80;99.90
45409;DHT22;31162;51.076;3.784;2023-05-02T00:58:44;12.70;99.90
45409;DHT22;31162;51.076;3.784;2023-05-02T01:09:51;12.80;99.90
45409;DHT22;31162;51.076;3.784;2023-05-02T01:12:26;12.90;99.90
45409;DHT22;31162;51.076;3.784;2023-05-02T01:14:53;12.90;99.90
45409;DHT22;31162;51.076;3.784;2023-05-02T01:17:23;12.70;99.90
45409;DHT22;31162;51.076;3.784;2023-05-02T01:19:52;12.60;99.90
45409;DHT22;31162;51.076;3.784;2023-05-02T01:22:20;12.60;99.90
45409;DHT22;31162;51.076;3.784;2023-05-02T01:31:00;12.70;99.90
45409;DHT22;31162;51.076;3.784;2023-05-02T01:33:28;12.60;99.90
45409;DHT22;31162;51.076;3.784;2023-05-02T01:35:55;12.60;99.90
45409;DHT22;31162;51.076;3.784;2023-05-02T01:38:22;12.60;99.90
45409;DHT22;31162;51.076;3.784;2023-05-02T01:40:50;12.70;99.90
45409;DHT22;31162;51.076;3.784;2023-05-02T01:43:18;12.60;99.90
45409;DHT22;31162;51.076;3.784;2023-05-02T01:45:47;12.60;99.90
45409;DHT22;31162;51.076;3.784;2023-05-02T01:48:14;12.60;99.90
45409;DHT22;31162;51.076;3.784;2023-05-02T01:50:40;12.50;99.90
45409;DHT22;31162;51.076;3.784;2023-05-02T01:53:09;12.50;99.90
45409;DHT22;31162;51.076;3.784;2023-05-02T01:55:39;12.50;99.90
45409;DHT22;31162;51.076;3.784;2023-05-02T01:58:05;12.50;99.90
45409;DHT22;31162;51.076;3.784;2023-05-02T02:00:32;12.40;99.90
45409;DHT22;31162;51.076;3.784;2023-05-02T02:02:58;12.20;99.90
45409;DHT22;31162;51.076;3.784;2023-05-02T02:05:26;12.10;99.90
45409;DHT22;31162;51.076;3.784;2023-05-02T02:07:52;12.20;99.90
45409;DHT22;31162;51.076;3.784;2023-05-02T02:10:18;12.10;99.90
45409;DHT22;31162;51.076;3.784;2023-05-02T02:12:53;12.10;99.90
45409;DHT22;31162;51.076;3.784;2023-05-02T02:15:24;12.00;99.90
45409;DHT22;31162;51.076;3.784;2023-05-02T02:18:04;11.90;99.90
45409;DHT22;31162;51.076;3.784;2023-05-02T02:20:34;11.80;99.90
45409;DHT22;31162;51.076;3.784;2023-05-02T02:23:02;11.80;99.90
45409;DHT22;31162;51.076;3.784;2023-05-02T02:25:30;11.60;99.90
45409;DHT22;31162;51.076;3.784;2023-05-02T02:27:56;11.50;99.90
45409;DHT22;31162;51.076;3.784;2023-05-02T02:30:22;11.50;99.90
45409;DHT22;31162;51.076;3.784;2023-05-02T02:32:48;11.50;99.90
45409;DHT22;31162;51.076;3.784;2023-05-02T02:35:13;11.40;99.90
45409;DHT22;31162;51.076;3.784;2023-05-02T02:38:06;11.40;99.90
45409;DHT22;31162;51.076;3.784;2023-05-02T02:40:41;11.30;99.90
45409;DHT22;31162;51.076;3.784;2023-05-02T02:51:44;11.30;99.90
45409;DHT22;31162;51.076;3.784;2023-05-02T02:57:09;11.20;99.90
45409;DHT22;31162;51.076;3.784;2023-05-02T02:59:44;11.10;99.90
45409;DHT22;31162;51.076;3.784;2023-05-02T03:02:14;11.10;99.90
45409;DHT22;31162;51.076;3.784;2023-05-02T03:04:42;11.20;99.90
45409;DHT22;31162;51.076;3.784;2023-05-02T03:07:09;11.20;99.90
45409;DHT22;31162;51.076;3.784;2023-05-02T03:09:46;11.20;99.90
45409;DHT22;31162;51.076;3.784;2023-05-02T03:12:12;11.30;99.90
45409;DHT22;31162;51.076;3.784;2023-05-02T03:14:38;11.30;99.90
45409;DHT22;31162;51.076;3.784;2023-05-02T03:17:04;11.40;99.90
45409;DHT22;31162;51.076;3.784;2023-05-02T03:19:30;11.40;99.90
45409;DHT22;31162;51.076;3.784;2023-05-02T03:21:56;11.40;99.90
45409;DHT22;31162;51.076;3.784;2023-05-02T03:24:21;11.30;99.90
45409;DHT22;31162;51.076;3.784;2023-05-02T03:26:47;11.30;99.90
45409;DHT22;31162;51.076;3.784;2023-05-02T03:29:13;11.30;99.90
45409;DHT22;31162;51.076;3.784;2023-05-02T03:31:39;11.20;99.90
45409;DHT22;31162;51.076;3.784;2023-05-02T03:34:06;11.30;99.90
45409;DHT22;31162;51.076;3.784;2023-05-02T03:36:31;11.40;99.90
45409;DHT22;31162;51.076;3.784;2023-05-02T03:38:57;11.50;99.90
45409;DHT22;31162;51.076;3.784;2023-05-02T03:41:23;11.50;99.90
45409;DHT22;31162;51.076;3.784;2023-05-02T03:43:51;11.40;99.90
45409;DHT22;31162;51.076;3.784;2023-05-02T03:46:17;11.30;99.90
45409;DHT22;31162;51.076;3.784;2023-05-02T03:48:43;11.30;99.90
45409;DHT22;31162;51.076;3.784;2023-05-02T03:51:11;11.30;99.90
45409;DHT22;31162;51.076;3.784;2023-05-02T03:53:36;11.50;99.90
45409;DHT22;31162;51.076;3.784;2023-05-02T03:56:02;11.50;99.90
45409;DHT22;31162;51.076;3.784;2023-05-02T03:58:28;11.40;99.90
45409;DHT22;31162;51.076;3.784;2023-05-02T04:00:53;11.40;99.90
45409;DHT22;31162;51.076;3.784;2023-05-02T04:03:20;11.50;99.90
45409;DHT22;31162;51.076;3.784;2023-05-02T04:05:46;11.60;99.90
45409;DHT22;31162;51.076;3.784;2023-05-02T04:08:11;11.60;99.90
45409;DHT22;31162;51.076;3.784;2023-05-02T04:10:38;11.50;99.90
45409;DHT22;31162;51.076;3.784;2023-05-02T04:13:03;11.50;99.90
45409;DHT22;31162;51.076;3.784;2023-05-02T04:15:32;11.50;99.90
45409;DHT22;31162;51.076;3.784;2023-05-02T04:17:58;11.50;99.90
45409;DHT22;31162;51.076;3.784;2023-05-02T04:20:24;11.60;99.90
45409;DHT22;31162;51.076;3.784;2023-05-02T04:22:49;11.60;99.90
45409;DHT22;31162;51.076;3.784;2023-05-02T04:25:16;11.60;99.90
45409;DHT22;31162;51.076;3.784;2023-05-02T04:27:42;11.70;99.90
45409;DHT22;31162;51.076;3.784;2023-05-02T04:30:08;11.60;99.90
45409;DHT22;31162;51.076;3.784;2023-05-02T04:32:36;11.60;99.90
45409;DHT22;31162;51.076;3.784;2023-05-02T04:35:02;11.70;99.90
45409;DHT22;31162;51.076;3.784;2023-05-02T04:37:28;11.60;99.90
45409;DHT22;31162;51.076;3.784;2023-05-02T04:39:54;11.70;99.90
45409;DHT22;31162;51.076;3.784;2023-05-02T04:42:20;11.80;99.90
45409;DHT22;31162;51.076;3.784;2023-05-02T04:44:47;11.90;99.90
45409;DHT22;31162;51.076;3.784;2023-05-02T04:47:13;12.00;99.90
45409;DHT22;31162;51.076;3.784;2023-05-02T04:49:38;12.10;99.90
45409;DHT22;31162;51.076;3.784;2023-05-02T04:52:04;12.00;99.90
45409;DHT22;31162;51.076;3.784;2023-05-02T04:54:33;11.80;99.90
45409;DHT22;31162;51.076;3.784;2023-05-02T04:56:59;11.60;99.90
45409;DHT22;31162;51.076;3.784;2023-05-02T04:59:29;11.60;99.90
45409;DHT22;31162;51.076;3.784;2023-05-02T05:01:55;11.60;99.90
45409;DHT22;31162;51.076;3.784;2023-05-02T05:04:21;11.50;99.90
45409;DHT22;31162;51.076;3.784;2023-05-02T05:06:47;11.60;99.90
45409;DHT22;31162;51.076;3.784;2023-05-02T05:09:13;11.70;99.90
45409;DHT22;31162;51.076;3.784;2023-05-02T05:11:42;11.70;99.90
45409;DHT22;31162;51.076;3.784;2023-05-02T05:14:08;11.70;99.90
45409;DHT22;31162;51.076;3.784;2023-05-02T05:16:34;11.70;99.90
45409;DHT22;31162;51.076;3.784;2023-05-02T05:19:00;11.50;99.90
45409;DHT22;31162;51.076;3.784;2023-05-02T05:21:26;11.60;99.90
45409;DHT22;31162;51.076;3.784;2023-05-02T05:23:51;11.70;99.90
45409;DHT22;31162;51.076;3.784;2023-05-02T05:26:17;11.70;99.90
45409;DHT22;31162;51.076;3.784;2023-05-02T05:28:43;11.80;99.90
45409;DHT22;31162;51.076;3.784;2023-05-02T05:31:13;11.90;99.90
45409;DHT22;31162;51.076;3.784;2023-05-02T05:33:41;11.80;99.90
45409;DHT22;31162;51.076;3.784;2023-05-02T05:36:09;11.80;99.90
45409;DHT22;31162;51.076;3.784;2023-05-02T05:38:35;11.60;99.90
45409;DHT22;31162;51.076;3.784;2023-05-02T05:41:01;11.60;99.90
45409;DHT22;31162;51.076;3.784;2023-05-02T05:43:30;11.70;99.90
45409;DHT22;31162;51.076;3.784;2023-05-02T05:45:55;11.70;99.90
45409;DHT22;31162;51.076;3.784;2023-05-02T05:48:22;11.70;99.90
45409;DHT22;31162;51.076;3.784;2023-05-02T05:50:48;11.80;99.90
45409;DHT22;31162;51.076;3.784;2023-05-02T05:53:14;11.90;99.90
45409;DHT22;31162;51.076;3.784;2023-05-02T05:55:40;11.80;99.90
45409;DHT22;31162;51.076;3.784;2023-05-02T05:58:07;11.80;99.90
45409;DHT22;31162;51.076;3.784;2023-05-02T06:00:39;11.90;99.90
45409;DHT22;31162;51.076;3.784;2023-05-02T06:03:05;11.90;99.90
45409;DHT22;31162;51.076;3.784;2023-05-02T06:05:31;11.90;99.90
45409;DHT22;31162;51.076;3.784;2023-05-02T06:07:57;12.20;99.90
45409;DHT22;31162;51.076;3.784;2023-05-02T06:10:23;12.80;99.90
45409;DHT22;31162;51.076;3.784;2023-05-02T06:12:49;13.20;99.90
45409;DHT22;31162;51.076;3.784;2023-05-02T06:15:14;13.50;99.90
45409;DHT22;31162;51.076;3.784;2023-05-02T06:17:40;13.60;99.90
45409;DHT22;31162;51.076;3.784;2023-05-02T06:20:06;13.80;99.90
45409;DHT22;31162;51.076;3.784;2023-05-02T06:22:32;14.00;99.90
45409;DHT22;31162;51.076;3.784;2023-05-02T06:24:58;14.00;99.90
45409;DHT22;31162;51.076;3.784;2023-05-02T06:27:24;14.00;99.90
45409;DHT22;31162;51.076;3.784;2023-05-02T06:29:52;14.00;99.90
45409;DHT22;31162;51.076;3.784;2023-05-02T06:32:18;13.90;99.90
45409;DHT22;31162;51.076;3.784;2023-05-02T06:34:44;13.90;99.90
45409;DHT22;31162;51.076;3.784;2023-05-02T06:37:10;13.90;99.90
45409;DHT22;31162;51.076;3.784;2023-05-02T06:39:38;13.90;99.90
45409;DHT22;31162;51.076;3.784;2023-05-02T06:42:04;13.90;99.90
45409;DHT22;31162;51.076;3.784;2023-05-02T06:44:30;14.20;99.90
45409;DHT22;31162;51.076;3.784;2023-05-02T06:46:55;14.30;99.90
45409;DHT22;31162;51.076;3.784;2023-05-02T06:49:22;14.50;99.90
45409;DHT22;31162;51.076;3.784;2023-05-02T06:51:47;14.60;99.90
45409;DHT22;31162;51.076;3.784;2023-05-02T06:54:13;14.70;99.90
45409;DHT22;31162;51.076;3.784;2023-05-02T06:56:40;14.80;99.90
45409;DHT22;31162;51.076;3.784;2023-05-02T06:59:06;14.80;99.90
45409;DHT22;31162;51.076;3.784;2023-05-02T07:01:31;15.10;99.90
45409;DHT22;31162;51.076;3.784;2023-05-02T07:04:00;15.40;99.90
45409;DHT22;31162;51.076;3.784;2023-05-02T07:06:30;16.60;99.90
45409;DHT22;31162;51.076;3.784;2023-05-02T07:08:56;17.90;99.90
45409;DHT22;31162;51.076;3.784;2023-05-02T07:11:22;17.70;99.90
45409;DHT22;31162;51.076;3.784;2023-05-02T07:13:48;18.40;99.90
45409;DHT22;31162;51.076;3.784;2023-05-02T07:16:14;18.70;99.90
45409;DHT22;31162;51.076;3.784;2023-05-02T07:18:41;17.70;99.90
45409;DHT22;31162;51.076;3.784;2023-05-02T07:21:07;17.70;99.90
45409;DHT22;31162;51.076;3.784;2023-05-02T07:23:33;18.20;99.90
45409;DHT22;31162;51.076;3.784;2023-05-02T07:26:01;17.80;99.90
45409;DHT22;31162;51.076;3.784;2023-05-02T07:28:27;17.40;99.90
45409;DHT22;31162;51.076;3.784;2023-05-02T07:30:52;16.70;99.90
45409;DHT22;31162;51.076;3.784;2023-05-02T07:33:18;16.10;99.90
45409;DHT22;31162;51.076;3.784;2023-05-02T07:35:44;15.80;99.90
45409;DHT22;31162;51.076;3.784;2023-05-02T07:38:10;15.80;99.90
45409;DHT22;31162;51.076;3.784;2023-05-02T07:40:35;16.10;99.90
45409;DHT22;31162;51.076;3.784;2023-05-02T07:43:01;16.10;99.90
45409;DHT22;31162;51.076;3.784;2023-05-02T07:45:27;16.50;99.90
45409;DHT22;31162;51.076;3.784;2023-05-02T07:47:52;17.30;99.90
45409;DHT22;31162;51.076;3.784;2023-05-02T07:50:18;17.70;99.90
45409;DHT22;31162;51.076;3.784;2023-05-02T07:52:44;18.20;99.90
45409;DHT22;31162;51.076;3.784;2023-05-02T07:55:10;18.50;99.90
45409;DHT22;31162;51.076;3.784;2023-05-02T07:57:36;18.90;99.90
45409;DHT22;31162;51.076;3.784;2023-05-02T08:00:02;18.50;99.90
45409;DHT22;31162;51.076;3.784;2023-05-02T08:02:28;18.10;99.90
45409;DHT22;31162;51.076;3.784;2023-05-02T08:04:54;17.70;99.90
45409;DHT22;31162;51.076;3.784;2023-05-02T08:07:20;17.40;99.90
45409;DHT22;31162;51.076;3.784;2023-05-02T08:09:45;17.40;99.90
45409;DHT22;31162;51.076;3.784;2023-05-02T08:12:11;17.10;99.90
45409;DHT22;31162;51.076;3.784;2023-05-02T08:14:37;17.20;99.90
45409;DHT22;31162;51.076;3.784;2023-05-02T08:17:02;17.40;99.90
45409;DHT22;31162;51.076;3.784;2023-05-02T08:19:28;18.00;99.90
45409;DHT22;31162;51.076;3.784;2023-05-02T08:21:54;18.20;99.90
45409;DHT22;31162;51.076;3.784;2023-05-02T08:24:22;18.90;99.90
45409;DHT22;31162;51.076;3.784;2023-05-02T08:26:47;20.60;99.90
45409;DHT22;31162;51.076;3.784;2023-05-02T08:29:13;21.10;99.90
45409;DHT22;31162;51.076;3.784;2023-05-02T08:31:39;20.80;99.90
45409;DHT22;31162;51.076;3.784;2023-05-02T08:34:05;21.80;99.90
45409;DHT22;31162;51.076;3.784;2023-05-02T08:36:31;24.10;97.40
45409;DHT22;31162;51.076;3.784;2023-05-02T08:38:57;25.50;93.90
45409;DHT22;31162;51.076;3.784;2023-05-02T08:41:23;24.60;92.50
45409;DHT22;31162;51.076;3.784;2023-05-02T08:43:49;24.70;92.00
45409;DHT22;31162;51.076;3.784;2023-05-02T08:46:16;24.80;91.40
45409;DHT22;31162;51.076;3.784;2023-05-02T08:48:43;25.70;90.50
45409;DHT22;31162;51.076;3.784;2023-05-02T08:51:12;27.90;88.20
45409;DHT22;31162;51.076;3.784;2023-05-02T08:53:38;29.90;82.30
45409;DHT22;31162;51.076;3.784;2023-05-02T08:56:08;29.80;76.80
45409;DHT22;31162;51.076;3.784;2023-05-02T08:58:39;27.60;79.00
45409;DHT22;31162;51.076;3.784;2023-05-02T09:01:12;27.00;80.00
45409;DHT22;31162;51.076;3.784;2023-05-02T09:03:38;29.00;77.00
45409;DHT22;31162;51.076;3.784;2023-05-02T09:08:32;29.20;77.10
45409;DHT22;31162;51.076;3.784;2023-05-02T09:10:58;30.30;75.20
45409;DHT22;31162;51.076;3.784;2023-05-02T09:13:35;30.30;74.80
45409;DHT22;31162;51.076;3.784;2023-05-02T09:16:06;31.50;72.40
45409;DHT22;31162;51.076;3.784;2023-05-02T09:18:42;30.60;72.30
45409;DHT22;31162;51.076;3.784;2023-05-02T09:21:19;30.40;71.80
45409;DHT22;31162;51.076;3.784;2023-05-02T09:23:58;29.70;72.90
45409;DHT22;31162;51.076;3.784;2023-05-02T09:26:25;29.50;72.20
45409;DHT22;31162;51.076;3.784;2023-05-02T09:28:54;29.00;70.60
45409;DHT22;31162;51.076;3.784;2023-05-02T09:31:28;27.80;72.10
45409;DHT22;31162;51.076;3.784;2023-05-02T09:34:16;27.10;73.40
45409;DHT22;31162;51.076;3.784;2023-05-02T09:36:44;29.20;71.60
45409;DHT22;31162;51.076;3.784;2023-05-02T09:39:11;30.20;69.50
45409;DHT22;31162;51.076;3.784;2023-05-02T09:41:47;31.00;68.70
45409;DHT22;31162;51.076;3.784;2023-05-02T09:44:15;30.50;68.30
45409;DHT22;31162;51.076;3.784;2023-05-02T09:46:46;29.10;70.20
45409;DHT22;31162;51.076;3.784;2023-05-02T09:49:12;28.60;69.80
45409;DHT22;31162;51.076;3.784;2023-05-02T09:51:39;28.30;70.00
45409;DHT22;31162;51.076;3.784;2023-05-02T09:54:05;28.00;69.60
45409;DHT22;31162;51.076;3.784;2023-05-02T09:56:36;28.80;69.60
45409;DHT22;31162;51.076;3.784;2023-05-02T09:59:16;29.70;68.60
45409;DHT22;31162;51.076;3.784;2023-05-02T10:01:42;30.00;67.60
45409;DHT22;31162;51.076;3.784;2023-05-02T10:04:13;29.80;66.60
45409;DHT22;31162;51.076;3.784;2023-05-02T10:06:44;29.80;66.80
45409;DHT22;31162;51.076;3.784;2023-05-02T10:09:10;30.10;67.90
45409;DHT22;31162;51.076;3.784;2023-05-02T10:11:44;30.40;66.30
45409;DHT22;31162;51.076;3.784;2023-05-02T10:14:10;30.50;67.50
45409;DHT22;31162;51.076;3.784;2023-05-02T10:17:04;30.80;66.70
45409;DHT22;31162;51.076;3.784;2023-05-02T10:19:38;30.00;65.30
45409;DHT22;31162;51.076;3.784;2023-05-02T10:22:07;28.80;67.30
45409;DHT22;31162;51.076;3.784;2023-05-02T10:24:33;29.60;67.40
45409;DHT22;31162;51.076;3.784;2023-05-02T10:27:00;31.10;66.30
45409;DHT22;31162;51.076;3.784;2023-05-02T10:29:30;31.40;65.80
45409;DHT22;31162;51.076;3.784;2023-05-02T10:31:57;31.10;65.30
45409;DHT22;31162;51.076;3.784;2023-05-02T10:34:23;31.60;65.10
45409;DHT22;31162;51.076;3.784;2023-05-02T10:36:49;31.40;64.30
45409;DHT22;31162;51.076;3.784;2023-05-02T10:39:15;31.30;63.80
45409;DHT22;31162;51.076;3.784;2023-05-02T10:41:41;31.70;63.80
45409;DHT22;31162;51.076;3.784;2023-05-02T10:44:08;31.00;63.60
45409;DHT22;31162;51.076;3.784;2023-05-02T10:46:38;30.70;64.60
45409;DHT22;31162;51.076;3.784;2023-05-02T10:49:11;30.50;63.90
45409;DHT22;31162;51.076;3.784;2023-05-02T10:51:41;30.50;64.50
45409;DHT22;31162;51.076;3.784;2023-05-02T10:57:02;30.90;63.30
45409;DHT22;31162;51.076;3.784;2023-05-02T11:02:02;30.10;63.70
45409;DHT22;31162;51.076;3.784;2023-05-02T11:05:03;29.30;64.50
45409;DHT22;31162;51.076;3.784;2023-05-02T11:07:30;30.00;64.00
45409;DHT22;31162;51.076;3.784;2023-05-02T11:10:26;30.30;63.40
45409;DHT22;31162;51.076;3.784;2023-05-02T11:12:57;29.90;63.20
45409;DHT22;31162;51.076;3.784;2023-05-02T11:18:02;29.50;63.60
45409;DHT22;31162;51.076;3.784;2023-05-02T11:20:28;29.20;63.90
45409;DHT22;31162;51.076;3.784;2023-05-02T11:22:56;30.00;63.90
45409;DHT22;31162;51.076;3.784;2023-05-02T11:25:33;29.80;62.60
45409;DHT22;31162;51.076;3.784;2023-05-02T11:27:59;28.70;62.70
45409;DHT22;31162;51.076;3.784;2023-05-02T11:30:44;28.20;63.90
45409;DHT22;31162;51.076;3.784;2023-05-02T11:33:13;28.80;63.30
45409;DHT22;31162;51.076;3.784;2023-05-02T11:35:42;29.00;63.80
45409;DHT22;31162;51.076;3.784;2023-05-02T11:38:10;28.70;64.00
45409;DHT22;31162;51.076;3.784;2023-05-02T11:40:36;28.10;64.30
45409;DHT22;31162;51.076;3.784;2023-05-02T11:43:12;28.00;65.40
45409;DHT22;31162;51.076;3.784;2023-05-02T11:45:39;28.60;63.50
45409;DHT22;31162;51.076;3.784;2023-05-02T11:48:05;29.10;63.60
45409;DHT22;31162;51.076;3.784;2023-05-02T11:50:46;28.70;64.10
45409;DHT22;31162;51.076;3.784;2023-05-02T11:53:15;27.90;63.60
45409;DHT22;31162;51.076;3.784;2023-05-02T11:55:55;28.20;63.20
45409;DHT22;31162;51.076;3.784;2023-05-02T11:58:26;27.00;64.70
45409;DHT22;31162;51.076;3.784;2023-05-02T12:00:54;26.50;66.70
45409;DHT22;31162;51.076;3.784;2023-05-02T12:03:39;26.70;65.80
45409;DHT22;31162;51.076;3.784;2023-05-02T12:06:13;26.60;66.50
45409;DHT22;31162;51.076;3.784;2023-05-02T12:08:39;25.90;66.60
45409;DHT22;31162;51.076;3.784;2023-05-02T12:11:05;25.90;65.90
45409;DHT22;31162;51.076;3.784;2023-05-02T12:13:31;25.00;68.20
45409;DHT22;31162;51.076;3.784;2023-05-02T12:15:57;23.70;70.00
45409;DHT22;31162;51.076;3.784;2023-05-02T12:18:24;22.90;71.30
45409;DHT22;31162;51.076;3.784;2023-05-02T12:20:52;22.50;71.60
45409;DHT22;31162;51.076;3.784;2023-05-02T12:23:20;21.60;73.00
45409;DHT22;31162;51.076;3.784;2023-05-02T12:25:48;21.40;73.70
45409;DHT22;31162;51.076;3.784;2023-05-02T12:28:17;21.20;75.00
45409;DHT22;31162;51.076;3.784;2023-05-02T12:30:46;21.20;74.50
45409;DHT22;31162;51.076;3.784;2023-05-02T12:33:13;20.70;74.10
45409;DHT22;31162;51.076;3.784;2023-05-02T12:35:38;20.30;75.90
45409;DHT22;31162;51.076;3.784;2023-05-02T12:38:18;19.90;75.40
45409;DHT22;31162;51.076;3.784;2023-05-02T12:40:51;19.80;77.10
45409;DHT22;31162;51.076;3.784;2023-05-02T12:43:18;19.60;76.80
45409;DHT22;31162;51.076;3.784;2023-05-02T12:45:44;19.50;77.50
45409;DHT22;31162;51.076;3.784;2023-05-02T12:48:25;19.30;77.80
45409;DHT22;31162;51.076;3.784;2023-05-02T12:50:52;19.20;78.30
45409;DHT22;31162;51.076;3.784;2023-05-02T12:53:42;19.20;78.70
45409;DHT22;31162;51.076;3.784;2023-05-02T12:56:09;19.30;78.70
45409;DHT22;31162;51.076;3.784;2023-05-02T12:58:42;19.20;78.10
45409;DHT22;31162;51.076;3.784;2023-05-02T13:01:09;19.60;78.00
45409;DHT22;31162;51.076;3.784;2023-05-02T13:03:35;19.60;78.50
45409;DHT22;31162;51.076;3.784;2023-05-02T13:06:01;19.70;77.70
45409;DHT22;31162;51.076;3.784;2023-05-02T13:08:27;19.40;77.00
45409;DHT22;31162;51.076;3.784;2023-05-02T13:10:52;19.50;78.00
45409;DHT22;31162;51.076;3.784;2023-05-02T13:13:18;19.30;76.80
45409;DHT22;31162;51.076;3.784;2023-05-02T13:15:44;19.00;77.10
45409;DHT22;31162;51.076;3.784;2023-05-02T13:18:12;18.60;77.00
45409;DHT22;31162;51.076;3.784;2023-05-02T13:20:37;18.70;78.90
45409;DHT22;31162;51.076;3.784;2023-05-02T13:23:04;18.90;78.70
45409;DHT22;31162;51.076;3.784;2023-05-02T13:25:30;19.20;76.50
45409;DHT22;31162;51.076;3.784;2023-05-02T13:27:56;19.10;75.80
45409;DHT22;31162;51.076;3.784;2023-05-02T13:30:22;19.10;77.00
45409;DHT22;31162;51.076;3.784;2023-05-02T13:32:48;19.10;76.60
45409;DHT22;31162;51.076;3.784;2023-05-02T13:35:14;18.90;76.40
45409;DHT22;31162;51.076;3.784;2023-05-02T13:37:40;18.80;77.30
45409;DHT22;31162;51.076;3.784;2023-05-02T13:40:06;18.60;77.70
45409;DHT22;31162;51.076;3.784;2023-05-02T13:42:32;18.70;79.10
45409;DHT22;31162;51.076;3.784;2023-05-02T13:44:58;18.60;78.00
45409;DHT22;31162;51.076;3.784;2023-05-02T13:47:24;18.50;77.90
45409;DHT22;31162;51.076;3.784;2023-05-02T13:49:51;18.40;79.10
45409;DHT22;31162;51.076;3.784;2023-05-02T13:52:16;18.60;79.40
45409;DHT22;31162;51.076;3.784;2023-05-02T13:54:42;18.70;78.50
45409;DHT22;31162;51.076;3.784;2023-05-02T13:57:08;18.80;79.10
45409;DHT22;31162;51.076;3.784;2023-05-02T13:59:33;18.60;78.20
45409;DHT22;31162;51.076;3.784;2023-05-02T14:01:59;18.60;78.40
45409;DHT22;31162;51.076;3.784;2023-05-02T14:04:24;18.50;77.40
45409;DHT22;31162;51.076;3.784;2023-05-02T14:06:50;18.30;77.60
45409;DHT22;31162;51.076;3.784;2023-05-02T14:09:16;18.30;78.50
45409;DHT22;31162;51.076;3.784;2023-05-02T14:11:41;18.30;78.40
45409;DHT22;31162;51.076;3.784;2023-05-02T14:14:09;18.20;78.70
45409;DHT22;31162;51.076;3.784;2023-05-02T14:16:37;18.00;79.60
45409;DHT22;31162;51.076;3.784;2023-05-02T14:19:03;18.10;79.10
45409;DHT22;31162;51.076;3.784;2023-05-02T14:21:28;18.00;78.50
45409;DHT22;31162;51.076;3.784;2023-05-02T14:23:54;18.00;78.40
45409;DHT22;31162;51.076;3.784;2023-05-02T14:26:20;18.10;77.90
45409;DHT22;31162;51.076;3.784;2023-05-02T14:28:46;17.80;78.50
45409;DHT22;31162;51.076;3.784;2023-05-02T14:31:11;17.70;80.20
45409;DHT22;31162;51.076;3.784;2023-05-02T14:33:40;17.50;81.40
45409;DHT22;31162;51.076;3.784;2023-05-02T14:36:06;17.60;80.80
45409;DHT22;31162;51.076;3.784;2023-05-02T14:38:32;17.40;80.90
45409;DHT22;31162;51.076;3.784;2023-05-02T14:40:58;17.40;81.80
45409;DHT22;31162;51.076;3.784;2023-05-02T14:43:23;17.50;81.50
45409;DHT22;31162;51.076;3.784;2023-05-02T14:45:49;17.60;81.30
45409;DHT22;31162;51.076;3.784;2023-05-02T14:48:15;17.70;81.50
45409;DHT22;31162;51.076;3.784;2023-05-02T14:50:42;17.60;81.30
45409;DHT22;31162;51.076;3.784;2023-05-02T14:53:08;17.70;82.20
45409;DHT22;31162;51.076;3.784;2023-05-02T14:55:37;17.70;81.90
45409;DHT22;31162;51.076;3.784;2023-05-02T14:58:05;17.70;81.40
45409;DHT22;31162;51.076;3.784;2023-05-02T15:00:33;17.50;81.10
45409;DHT22;31162;51.076;3.784;2023-05-02T15:02:59;17.60;82.20
45409;DHT22;31162;51.076;3.784;2023-05-02T15:05:26;17.60;80.50
45409;DHT22;31162;51.076;3.784;2023-05-02T15:07:51;17.70;80.90
45409;DHT22;31162;51.076;3.784;2023-05-02T15:10:17;17.60;80.40
45409;DHT22;31162;51.076;3.784;2023-05-02T15:12:43;17.40;81.50
45409;DHT22;31162;51.076;3.784;2023-05-02T15:15:10;17.40;83.60
45409;DHT22;31162;51.076;3.784;2023-05-02T15:17:36;17.30;81.60
45409;DHT22;31162;51.076;3.784;2023-05-02T15:20:02;17.30;82.10
45409;DHT22;31162;51.076;3.784;2023-05-02T15:22:28;17.30;80.70
45409;DHT22;31162;51.076;3.784;2023-05-02T15:24:54;17.30;81.00
45409;DHT22;31162;51.076;3.784;2023-05-02T15:27:19;17.30;81.20
45409;DHT22;31162;51.076;3.784;2023-05-02T15:29:45;17.10;81.10
45409;DHT22;31162;51.076;3.784;2023-05-02T15:32:11;17.00;82.70
45409;DHT22;31162;51.076;3.784;2023-05-02T15:34:36;16.90;81.40
45409;DHT22;31162;51.076;3.784;2023-05-02T15:37:02;16.80;82.50
45409;DHT22;31162;51.076;3.784;2023-05-02T15:39:28;16.70;82.40
45409;DHT22;31162;51.076;3.784;2023-05-02T15:41:53;16.70;81.80
45409;DHT22;31162;51.076;3.784;2023-05-02T15:44:19;16.60;81.50
45409;DHT22;31162;51.076;3.784;2023-05-02T15:46:45;16.70;81.20
45409;DHT22;31162;51.076;3.784;2023-05-02T15:49:13;16.70;80.50
45409;DHT22;31162;51.076;3.784;2023-05-02T15:51:39;16.70;81.50
45409;DHT22;31162;51.076;3.784;2023-05-02T15:54:05;16.60;81.90
45409;DHT22;31162;51.076;3.784;2023-05-02T15:56:31;16.60;82.20
45409;DHT22;31162;51.076;3.784;2023-05-02T15:58:57;16.70;82.40
45409;DHT22;31162;51.076;3.784;2023-05-02T16:01:23;16.70;83.30
45409;DHT22;31162;51.076;3.784;2023-05-02T16:03:49;16.50;81.90
45409;DHT22;31162;51.076;3.784;2023-05-02T16:06:14;16.30;82.90
45409;DHT22;31162;51.076;3.784;2023-05-02T16:08:41;16.40;82.70